FIN255 ULLI-EFHK
Flight info
| Callsign | FIN255 |
|---|---|
| Flight time | 0h 37m |
| Altitude | 26000 |
| Route | ULLI/28R N0120F260 UTET1A UTETA M60 ATLUM T561 LEDUN ROPA4B |
| Aircraft | B738/M-SDE2E3FGHIRWXY/LB1D1 |
Departure
| Time | 2026-04-23 17:35 |
|---|---|
| Airport | Pulkovo Airport (ULLI) |
Arrival
| Time | 2026-04-23 18:13 |
|---|---|
| Airport | Helsinki Vantaa Airport (EFHK) |
| Time | Latitude | Longitude | Altitude | Speed | Heading |
|---|---|---|---|---|---|
| 2026-04-23 16:57 | 59.79897 | 30.26692 | 8 ft | 0 kts | 106° |
| 2026-04-23 17:15 | 59.79897 | 30.26689 | 8 ft | 1 kts | 106° |
| 2026-04-23 17:16 | 59.79900 | 30.26675 | 8 ft | 0 kts | 106° |
| 2026-04-23 17:18 | 59.79905 | 30.26641 | 8 ft | 2 kts | 98° |
| 2026-04-23 17:18 | 59.79902 | 30.26607 | 8 ft | 2 kts | 67° |
| 2026-04-23 17:18 | 59.79894 | 30.26581 | 8 ft | 2 kts | 42° |
| 2026-04-23 17:19 | 59.79886 | 30.26570 | 8 ft | 2 kts | 27° |
| 2026-04-23 17:19 | 59.79882 | 30.26566 | 8 ft | 0 kts | 21° |
| 2026-04-23 17:19 | 59.79878 | 30.26563 | 8 ft | 1 kts | 17° |
| 2026-04-23 17:19 | 59.79876 | 30.26562 | 8 ft | 0 kts | 18° |
| 2026-04-23 17:23 | 59.79879 | 30.26564 | 8 ft | 2 kts | 18° |
| 2026-04-23 17:24 | 59.79904 | 30.26580 | 8 ft | 8 kts | 17° |
| 2026-04-23 17:24 | 59.79973 | 30.26621 | 8 ft | 16 kts | 16° |
| 2026-04-23 17:24 | 59.80190 | 30.26751 | 8 ft | 18 kts | 16° |
| 2026-04-23 17:25 | 59.80339 | 30.26837 | 8 ft | 11 kts | 16° |
| 2026-04-23 17:25 | 59.80384 | 30.26918 | 8 ft | 14 kts | 87° |
| 2026-04-23 17:26 | 59.80332 | 30.27307 | 8 ft | 21 kts | 107° |
| 2026-04-23 17:26 | 59.80270 | 30.27734 | 8 ft | 27 kts | 106° |
| 2026-04-23 17:27 | 59.80189 | 30.28271 | 8 ft | 23 kts | 107° |
| 2026-04-23 17:27 | 59.80149 | 30.28536 | 8 ft | 26 kts | 107° |
| 2026-04-23 17:27 | 59.80105 | 30.28831 | 8 ft | 31 kts | 105° |
| 2026-04-23 17:27 | 59.80055 | 30.29167 | 8 ft | 25 kts | 106° |
| 2026-04-23 17:28 | 59.80015 | 30.29435 | 8 ft | 20 kts | 106° |
| 2026-04-23 17:28 | 59.79980 | 30.29669 | 8 ft | 15 kts | 106° |
| 2026-04-23 17:28 | 59.79977 | 30.29685 | 8 ft | 0 kts | 106° |
| 2026-04-23 17:28 | 59.79971 | 30.29725 | 8 ft | 7 kts | 106° |
| 2026-04-23 17:29 | 59.79964 | 30.29777 | 8 ft | 5 kts | 106° |
| 2026-04-23 17:29 | 59.79963 | 30.29781 | 8 ft | 0 kts | 107° |
| 2026-04-23 17:29 | 59.79958 | 30.29812 | 8 ft | 5 kts | 107° |
| 2026-04-23 17:30 | 59.79948 | 30.29876 | 8 ft | 9 kts | 107° |
| 2026-04-23 17:30 | 59.79943 | 30.30009 | 8 ft | 1 kts | 70° |
| 2026-04-23 17:30 | 59.79951 | 30.30038 | 8 ft | 0 kts | 54° |
| 2026-04-23 17:31 | 59.79958 | 30.30054 | 8 ft | 4 kts | 51° |
| 2026-04-23 17:31 | 59.79991 | 30.30132 | 8 ft | 6 kts | 47° |
| 2026-04-23 17:32 | 59.79995 | 30.30141 | 8 ft | 0 kts | 47° |
| 2026-04-23 17:32 | 59.80000 | 30.30152 | 8 ft | 3 kts | 47° |
| 2026-04-23 17:33 | 59.80033 | 30.30220 | 8 ft | 13 kts | 45° |
| 2026-04-23 17:33 | 59.80121 | 30.30247 | 8 ft | 15 kts | 301° |
| 2026-04-23 17:33 | 59.80129 | 30.30213 | 8 ft | 0 kts | 287° |
| 2026-04-23 17:34 | 59.80134 | 30.30173 | 8 ft | 10 kts | 283° |
| 2026-04-23 17:35 | 59.80191 | 30.29779 | 8 ft | 71 kts | 287° |
| 2026-04-23 17:35 | 59.80703 | 30.26445 | 631 ft | 168 kts | 287° |
| 2026-04-23 17:35 | 59.81007 | 30.24426 | 1329 ft | 184 kts | 286° |
| 2026-04-23 17:36 | 59.81451 | 30.20826 | 3194 ft | 172 kts | 283° |
| 2026-04-23 17:36 | 59.81759 | 30.19036 | 3419 ft | 212 kts | 290° |
| 2026-04-23 17:36 | 59.82279 | 30.15805 | 3512 ft | 264 kts | 286° |
| 2026-04-23 17:37 | 59.82732 | 30.12679 | 3501 ft | 269 kts | 286° |
| 2026-04-23 17:37 | 59.83144 | 30.09766 | 3657 ft | 261 kts | 285° |
| 2026-04-23 17:37 | 59.83858 | 30.04674 | 4727 ft | 266 kts | 285° |
| 2026-04-23 17:38 | 59.84317 | 30.01405 | 5399 ft | 270 kts | 285° |
| 2026-04-23 17:38 | 59.84800 | 29.97955 | 6176 ft | 273 kts | 285° |
| 2026-04-23 17:38 | 59.85307 | 29.94333 | 6973 ft | 276 kts | 285° |
| 2026-04-23 17:38 | 59.85814 | 29.90701 | 7765 ft | 279 kts | 285° |
| 2026-04-23 17:39 | 59.86334 | 29.86982 | 8565 ft | 283 kts | 285° |
| 2026-04-23 17:39 | 59.86855 | 29.83254 | 8969 ft | 290 kts | 285° |
| 2026-04-23 17:39 | 59.87383 | 29.79460 | 8991 ft | 288 kts | 285° |
| 2026-04-23 17:39 | 59.87831 | 29.76250 | 8999 ft | 286 kts | 285° |
| 2026-04-23 17:40 | 59.88230 | 29.73050 | 8988 ft | 285 kts | 278° |
| 2026-04-23 17:40 | 59.88402 | 29.69568 | 9508 ft | 280 kts | 275° |
| 2026-04-23 17:40 | 59.88559 | 29.65706 | 10272 ft | 288 kts | 275° |
| 2026-04-23 17:40 | 59.88705 | 29.61957 | 10992 ft | 295 kts | 275° |
| 2026-04-23 17:41 | 59.88829 | 29.58731 | 11571 ft | 313 kts | 275° |
| 2026-04-23 17:41 | 59.89174 | 29.49593 | 13114 ft | 347 kts | 275° |
| 2026-04-23 17:41 | 59.89352 | 29.44829 | 14102 ft | 354 kts | 275° |
| 2026-04-23 17:42 | 59.89711 | 29.35057 | 16101 ft | 365 kts | 275° |
| 2026-04-23 17:42 | 59.89858 | 29.31016 | 16869 ft | 369 kts | 274° |
| 2026-04-23 17:42 | 59.90026 | 29.26329 | 17713 ft | 374 kts | 274° |
| 2026-04-23 17:43 | 59.90210 | 29.21143 | 18604 ft | 379 kts | 274° |
| 2026-04-23 17:43 | 59.90392 | 29.15974 | 19447 ft | 384 kts | 274° |
| 2026-04-23 17:43 | 59.90576 | 29.10675 | 20267 ft | 388 kts | 274° |
| 2026-04-23 17:43 | 59.90737 | 29.05989 | 20968 ft | 392 kts | 274° |
| 2026-04-23 17:44 | 59.90868 | 29.02114 | 21532 ft | 395 kts | 274° |
| 2026-04-23 17:44 | 59.91001 | 28.98186 | 22076 ft | 399 kts | 274° |
| 2026-04-23 17:44 | 59.91312 | 28.88825 | 23300 ft | 406 kts | 274° |
| 2026-04-23 17:45 | 59.91494 | 28.83222 | 23996 ft | 411 kts | 274° |
| 2026-04-23 17:45 | 59.91859 | 28.71825 | 25320 ft | 419 kts | 274° |
| 2026-04-23 17:45 | 59.92043 | 28.65944 | 25928 ft | 425 kts | 274° |
| 2026-04-23 17:46 | 59.92404 | 28.54166 | 26012 ft | 442 kts | 274° |
| 2026-04-23 17:46 | 59.92575 | 28.48479 | 26005 ft | 439 kts | 274° |
| 2026-04-23 17:46 | 59.92754 | 28.42404 | 26004 ft | 438 kts | 274° |
| 2026-04-23 17:47 | 59.92929 | 28.36403 | 26005 ft | 438 kts | 274° |
| 2026-04-23 17:47 | 59.93101 | 28.30399 | 26005 ft | 438 kts | 273° |
| 2026-04-23 17:47 | 59.93424 | 28.18848 | 26005 ft | 438 kts | 273° |
| 2026-04-23 17:48 | 59.93588 | 28.12821 | 26005 ft | 438 kts | 273° |
| 2026-04-23 17:48 | 59.93750 | 28.06792 | 26005 ft | 438 kts | 273° |
| 2026-04-23 17:48 | 59.93908 | 28.00816 | 26005 ft | 438 kts | 273° |
| 2026-04-23 17:48 | 59.94063 | 27.94819 | 26005 ft | 438 kts | 273° |
| 2026-04-23 17:49 | 59.94217 | 27.88783 | 26005 ft | 438 kts | 273° |
| 2026-04-23 17:49 | 59.94348 | 27.83516 | 26005 ft | 438 kts | 273° |
| 2026-04-23 17:49 | 59.94497 | 27.77479 | 26005 ft | 438 kts | 273° |
| 2026-04-23 17:49 | 59.94642 | 27.71453 | 26005 ft | 438 kts | 273° |
| 2026-04-23 17:50 | 59.94786 | 27.65392 | 26005 ft | 438 kts | 273° |
| 2026-04-23 17:50 | 59.95065 | 27.53223 | 26005 ft | 438 kts | 273° |
| 2026-04-23 17:50 | 59.95197 | 27.47329 | 26005 ft | 438 kts | 273° |
| 2026-04-23 17:51 | 59.95328 | 27.41326 | 26005 ft | 438 kts | 273° |
| 2026-04-23 17:51 | 59.95457 | 27.35278 | 26005 ft | 438 kts | 273° |
| 2026-04-23 17:51 | 59.95655 | 27.25796 | 25416 ft | 425 kts | 272° |
| 2026-04-23 17:52 | 59.95769 | 27.20155 | 24959 ft | 418 kts | 272° |
| 2026-04-23 17:52 | 59.95988 | 27.08988 | 24071 ft | 410 kts | 272° |
| 2026-04-23 17:52 | 59.96095 | 27.03299 | 23623 ft | 409 kts | 272° |
| 2026-04-23 17:53 | 59.96294 | 26.92430 | 22765 ft | 404 kts | 272° |
| 2026-04-23 17:53 | 59.96392 | 26.86950 | 22331 ft | 402 kts | 272° |
| 2026-04-23 17:53 | 59.96487 | 26.81428 | 21893 ft | 399 kts | 272° |
| 2026-04-23 17:54 | 59.96576 | 26.76161 | 21477 ft | 396 kts | 272° |
| 2026-04-23 17:54 | 59.96665 | 26.70760 | 21050 ft | 394 kts | 272° |
| 2026-04-23 17:54 | 59.96818 | 26.61143 | 20289 ft | 389 kts | 272° |
| 2026-04-23 17:55 | 59.96977 | 26.50595 | 19455 ft | 384 kts | 272° |
| 2026-04-23 17:55 | 59.97054 | 26.45309 | 19037 ft | 382 kts | 272° |
| 2026-04-23 17:55 | 59.97128 | 26.40072 | 18623 ft | 380 kts | 272° |
| 2026-04-23 17:56 | 59.97195 | 26.35243 | 18241 ft | 377 kts | 272° |
| 2026-04-23 17:56 | 59.97288 | 26.28232 | 17687 ft | 374 kts | 271° |
| 2026-04-23 17:56 | 59.97353 | 26.23197 | 17289 ft | 372 kts | 271° |
| 2026-04-23 17:57 | 59.97416 | 26.18110 | 16886 ft | 370 kts | 271° |
| 2026-04-23 17:57 | 59.97644 | 26.13288 | 16459 ft | 368 kts | 282° |
| 2026-04-23 17:57 | 59.99648 | 26.04551 | 15714 ft | 363 kts | 300° |
| 2026-04-23 17:58 | 60.00893 | 26.00405 | 15325 ft | 362 kts | 301° |
| 2026-04-23 17:58 | 60.02045 | 25.96654 | 14973 ft | 360 kts | 302° |
| 2026-04-23 17:58 | 60.03233 | 25.92814 | 14612 ft | 358 kts | 302° |
| 2026-04-23 17:58 | 60.04524 | 25.88645 | 14221 ft | 356 kts | 302° |
| 2026-04-23 17:59 | 60.05820 | 25.84463 | 13818 ft | 347 kts | 302° |
| 2026-04-23 17:59 | 60.07054 | 25.80473 | 13434 ft | 339 kts | 302° |
| 2026-04-23 17:59 | 60.08151 | 25.76923 | 13061 ft | 333 kts | 302° |
| 2026-04-23 17:59 | 60.09031 | 25.73791 | 12667 ft | 340 kts | 294° |
| 2026-04-23 18:00 | 60.09576 | 25.70124 | 12218 ft | 344 kts | 280° |
| 2026-04-23 18:00 | 60.09682 | 25.66313 | 11775 ft | 341 kts | 268° |
| 2026-04-23 18:00 | 60.09734 | 25.62126 | 11317 ft | 336 kts | 275° |
| 2026-04-23 18:00 | 60.09932 | 25.57687 | 10766 ft | 320 kts | 276° |
| 2026-04-23 18:01 | 60.10080 | 25.54664 | 10327 ft | 305 kts | 276° |
| 2026-04-23 18:01 | 60.10274 | 25.50724 | 9792 ft | 287 kts | 276° |
| 2026-04-23 18:01 | 60.10431 | 25.47502 | 9371 ft | 281 kts | 276° |
| 2026-04-23 18:01 | 60.10616 | 25.43691 | 8916 ft | 281 kts | 276° |
| 2026-04-23 18:02 | 60.10733 | 25.41279 | 8656 ft | 282 kts | 276° |
| 2026-04-23 18:02 | 60.10959 | 25.36571 | 8146 ft | 281 kts | 276° |
| 2026-04-23 18:02 | 60.11077 | 25.34101 | 7940 ft | 279 kts | 275° |
| 2026-04-23 18:02 | 60.11243 | 25.30592 | 7617 ft | 279 kts | 275° |
| 2026-04-23 18:03 | 60.11406 | 25.27153 | 7308 ft | 278 kts | 275° |
| 2026-04-23 18:03 | 60.11548 | 25.24129 | 7073 ft | 283 kts | 275° |
| 2026-04-23 18:03 | 60.11705 | 25.20764 | 6703 ft | 284 kts | 275° |
| 2026-04-23 18:03 | 60.11875 | 25.17109 | 6120 ft | 271 kts | 275° |
| 2026-04-23 18:04 | 60.12012 | 25.14142 | 5658 ft | 265 kts | 275° |
| 2026-04-23 18:04 | 60.12177 | 25.10563 | 5109 ft | 261 kts | 275° |
| 2026-04-23 18:04 | 60.12314 | 25.07563 | 5008 ft | 254 kts | 275° |
| 2026-04-23 18:04 | 60.12428 | 25.05063 | 4995 ft | 250 kts | 275° |
| 2026-04-23 18:05 | 60.12562 | 25.02058 | 4563 ft | 252 kts | 275° |
| 2026-04-23 18:05 | 60.12692 | 24.99083 | 4154 ft | 242 kts | 275° |
| 2026-04-23 18:05 | 60.12833 | 24.95892 | 3847 ft | 238 kts | 275° |
| 2026-04-23 18:05 | 60.12912 | 24.94122 | 3661 ft | 240 kts | 275° |
| 2026-04-23 18:06 | 60.13036 | 24.91318 | 3371 ft | 241 kts | 275° |
| 2026-04-23 18:06 | 60.13171 | 24.88265 | 3052 ft | 241 kts | 275° |
| 2026-04-23 18:06 | 60.13305 | 24.85215 | 2730 ft | 240 kts | 275° |
| 2026-04-23 18:06 | 60.13489 | 24.82234 | 2439 ft | 243 kts | 283° |
| 2026-04-23 18:07 | 60.13873 | 24.80186 | 2316 ft | 237 kts | 298° |
| 2026-04-23 18:07 | 60.14517 | 24.78373 | 2356 ft | 233 kts | 310° |
| 2026-04-23 18:07 | 60.15257 | 24.76808 | 2343 ft | 228 kts | 315° |
| 2026-04-23 18:07 | 60.16090 | 24.75210 | 2287 ft | 214 kts | 317° |
| 2026-04-23 18:08 | 60.16774 | 24.73939 | 2284 ft | 201 kts | 317° |
| 2026-04-23 18:08 | 60.17971 | 24.71736 | 2270 ft | 188 kts | 317° |
| 2026-04-23 18:08 | 60.18946 | 24.70051 | 2301 ft | 195 kts | 327° |
| 2026-04-23 18:08 | 60.20198 | 24.69224 | 2300 ft | 196 kts | 355° |
| 2026-04-23 18:09 | 60.21320 | 24.69508 | 2291 ft | 196 kts | 18° |
| 2026-04-23 18:09 | 60.22384 | 24.70823 | 2292 ft | 196 kts | 43° |
| 2026-04-23 18:09 | 60.23166 | 24.72533 | 2320 ft | 196 kts | 47° |
| 2026-04-23 18:09 | 60.23890 | 24.74144 | 2259 ft | 199 kts | 47° |
| 2026-04-23 18:10 | 60.24708 | 24.75947 | 1983 ft | 194 kts | 47° |
| 2026-04-23 18:10 | 60.25551 | 24.77795 | 1714 ft | 186 kts | 47° |
| 2026-04-23 18:10 | 60.26299 | 24.79432 | 1484 ft | 179 kts | 47° |
| 2026-04-23 18:10 | 60.27052 | 24.81079 | 1248 ft | 171 kts | 47° |
| 2026-04-23 18:11 | 60.27563 | 24.82199 | 1091 ft | 163 kts | 47° |
| 2026-04-23 18:11 | 60.28168 | 24.83524 | 916 ft | 149 kts | 47° |
| 2026-04-23 18:11 | 60.28752 | 24.84804 | 744 ft | 144 kts | 47° |
| 2026-04-23 18:11 | 60.29416 | 24.86259 | 574 ft | 146 kts | 47° |
| 2026-04-23 18:12 | 60.29884 | 24.87287 | 449 ft | 148 kts | 47° |
| 2026-04-23 18:12 | 60.30506 | 24.88653 | 274 ft | 148 kts | 47° |
| 2026-04-23 18:12 | 60.31101 | 24.89959 | 107 ft | 147 kts | 47° |
| 2026-04-23 18:12 | 60.31596 | 24.91040 | 24 ft | 142 kts | 47° |
| 2026-04-23 18:13 | 60.32036 | 24.91992 | 8 ft | 122 kts | 47° |
| 2026-04-23 18:13 | 60.32362 | 24.92732 | 8 ft | 51 kts | 53° |
| 2026-04-23 18:13 | 60.32424 | 24.92976 | 8 ft | 21 kts | 73° |
| 2026-04-23 18:13 | 60.32453 | 24.93194 | 8 ft | 24 kts | 76° |
| 2026-04-23 18:14 | 60.32478 | 24.93422 | 8 ft | 27 kts | 77° |
| 2026-04-23 18:14 | 60.32508 | 24.93680 | 8 ft | 25 kts | 77° |
| 2026-04-23 18:14 | 60.32537 | 24.93902 | 8 ft | 27 kts | 62° |
| 2026-04-23 18:14 | 60.32627 | 24.94116 | 8 ft | 27 kts | 51° |
| 2026-04-23 18:15 | 60.32713 | 24.94311 | 8 ft | 25 kts | 47° |
| 2026-04-23 18:15 | 60.32809 | 24.94521 | 8 ft | 28 kts | 47° |
| 2026-04-23 18:15 | 60.32897 | 24.94720 | 8 ft | 25 kts | 49° |
| 2026-04-23 18:15 | 60.32917 | 24.94863 | 8 ft | 15 kts | 122° |
| 2026-04-23 18:16 | 60.32872 | 24.94935 | 8 ft | 16 kts | 160° |
| 2026-04-23 18:16 | 60.32778 | 24.94992 | 8 ft | 22 kts | 163° |
| 2026-04-23 18:16 | 60.32643 | 24.95080 | 8 ft | 29 kts | 163° |
| 2026-04-23 18:17 | 60.32373 | 24.95262 | 8 ft | 26 kts | 160° |
| 2026-04-23 18:17 | 60.32262 | 24.95415 | 8 ft | 13 kts | 137° |
| 2026-04-23 18:17 | 60.32222 | 24.95491 | 8 ft | 10 kts | 136° |
| 2026-04-23 18:17 | 60.32207 | 24.95521 | 8 ft | 0 kts | 135° |
| 2026-04-23 18:18 | 60.32201 | 24.95532 | 8 ft | 4 kts | 136° |
| 2026-04-23 18:18 | 60.32155 | 24.95613 | 8 ft | 16 kts | 140° |
| 2026-04-23 18:19 | 60.32075 | 24.95773 | 8 ft | 14 kts | 120° |
| 2026-04-23 18:19 | 60.32026 | 24.95859 | 8 ft | 16 kts | 145° |
| 2026-04-23 18:19 | 60.31983 | 24.95926 | 8 ft | 0 kts | 139° |
| 2026-04-23 18:20 | 60.31981 | 24.95929 | 8 ft | 3 kts | 139° |
| 2026-04-23 18:20 | 60.31972 | 24.95947 | 8 ft | 0 kts | 136° |
| 2026-04-23 18:21 | 60.31969 | 24.95951 | 8 ft | 0 kts | 143° |